sensor_id;sensor_type;location;lat;lon;timestamp;pressure;altitude;pressure_sealevel;temperature;humidity
61618;BME280;47518;51.776;9.370;2022-12-18T00:01:28;101683.44;;;-9.80;78.19
61618;BME280;47518;51.776;9.370;2022-12-18T00:03:55;101683.09;;;-9.47;78.62
61618;BME280;47518;51.776;9.370;2022-12-18T00:06:21;101689.25;;;-9.51;78.49
61618;BME280;47518;51.776;9.370;2022-12-18T00:08:47;101689.22;;;-9.49;78.10
61618;BME280;47518;51.776;9.370;2022-12-18T00:11:16;101692.72;;;-9.46;78.86
61618;BME280;47518;51.776;9.370;2022-12-18T00:13:42;101684.63;;;-9.29;78.91
61618;BME280;47518;51.776;9.370;2022-12-18T00:16:12;101701.13;;;-9.16;80.18
61618;BME280;47518;51.776;9.370;2022-12-18T00:18:37;101700.28;;;-9.18;79.82
61618;BME280;47518;51.776;9.370;2022-12-18T00:21:05;101690.56;;;-9.12;79.97
61618;BME280;47518;51.776;9.370;2022-12-18T00:23:31;101709.91;;;-9.16;79.05
61618;BME280;47518;51.776;9.370;2022-12-18T00:26:00;101710.97;;;-9.30;79.72
61618;BME280;47518;51.776;9.370;2022-12-18T00:28:26;101699.72;;;-9.45;78.12
61618;BME280;47518;51.776;9.370;2022-12-18T00:31:00;101705.78;;;-9.39;77.92
61618;BME280;47518;51.776;9.370;2022-12-18T00:33:25;101712.16;;;-9.57;76.83
61618;BME280;47518;51.776;9.370;2022-12-18T00:35:50;101717.31;;;-9.48;76.86
61618;BME280;47518;51.776;9.370;2022-12-18T00:38:16;101711.31;;;-9.64;76.32
61618;BME280;47518;51.776;9.370;2022-12-18T00:40:41;101713.03;;;-9.61;77.62
61618;BME280;47518;51.776;9.370;2022-12-18T00:43:08;101713.00;;;-9.55;77.23
61618;BME280;47518;51.776;9.370;2022-12-18T00:45:34;101703.22;;;-9.43;77.10
61618;BME280;47518;51.776;9.370;2022-12-18T00:47:59;101689.22;;;-9.46;77.12
61618;BME280;47518;51.776;9.370;2022-12-18T00:50:25;101691.84;;;-9.46;77.40
61618;BME280;47518;51.776;9.370;2022-12-18T00:52:50;101700.63;;;-9.46;78.03
61618;BME280;47518;51.776;9.370;2022-12-18T00:55:16;101699.66;;;-9.40;79.50
61618;BME280;47518;51.776;9.370;2022-12-18T00:57:42;101710.16;;;-9.35;81.23
61618;BME280;47518;51.776;9.370;2022-12-18T01:00:09;101708.53;;;-9.50;80.01
61618;BME280;47518;51.776;9.370;2022-12-18T01:02:35;101719.13;;;-9.53;78.60
61618;BME280;47518;51.776;9.370;2022-12-18T01:05:01;101721.00;;;-9.66;77.85
61618;BME280;47518;51.776;9.370;2022-12-18T01:07:26;101721.94;;;-9.75;77.11
61618;BME280;47518;51.776;9.370;2022-12-18T01:09:52;101720.22;;;-9.77;78.31
61618;BME280;47518;51.776;9.370;2022-12-18T01:12:17;101713.91;;;-9.61;78.72
61618;BME280;47518;51.776;9.370;2022-12-18T01:14:43;101721.69;;;-9.47;77.79
61618;BME280;47518;51.776;9.370;2022-12-18T01:17:08;101731.22;;;-9.35;77.12
61618;BME280;47518;51.776;9.370;2022-12-18T01:19:33;101731.09;;;-9.26;78.03
61618;BME280;47518;51.776;9.370;2022-12-18T01:21:59;101730.28;;;-9.30;78.27
61618;BME280;47518;51.776;9.370;2022-12-18T01:24:24;101737.97;;;-9.12;79.28
61618;BME280;47518;51.776;9.370;2022-12-18T01:26:50;101735.50;;;-9.24;80.21
61618;BME280;47518;51.776;9.370;2022-12-18T01:29:15;101726.06;;;-9.46;78.24
61618;BME280;47518;51.776;9.370;2022-12-18T01:31:40;101737.78;;;-9.78;76.90
61618;BME280;47518;51.776;9.370;2022-12-18T01:34:06;101729.72;;;-9.62;78.25
61618;BME280;47518;51.776;9.370;2022-12-18T01:36:33;101733.16;;;-9.53;78.75
61618;BME280;47518;51.776;9.370;2022-12-18T01:39:01;101719.00;;;-9.43;78.71
61618;BME280;47518;51.776;9.370;2022-12-18T01:41:28;101724.22;;;-9.36;78.27
61618;BME280;47518;51.776;9.370;2022-12-18T01:47:41;101725.00;;;-9.28;77.79
61618;BME280;47518;51.776;9.370;2022-12-18T01:50:13;101739.09;;;-9.34;78.43
61618;BME280;47518;51.776;9.370;2022-12-18T01:52:45;101739.97;;;-9.32;80.52
61618;BME280;47518;51.776;9.370;2022-12-18T01:55:12;101731.75;;;-9.06;80.75
61618;BME280;47518;51.776;9.370;2022-12-18T01:57:40;101728.38;;;-9.17;80.63
61618;BME280;47518;51.776;9.370;2022-12-18T02:00:10;101733.78;;;-9.29;78.99
61618;BME280;47518;51.776;9.370;2022-12-18T02:02:37;101725.97;;;-9.35;79.22
61618;BME280;47518;51.776;9.370;2022-12-18T02:05:03;101719.75;;;-9.31;78.86
61618;BME280;47518;51.776;9.370;2022-12-18T02:07:42;101721.34;;;-9.14;78.86
61618;BME280;47518;51.776;9.370;2022-12-18T02:15:48;101738.72;;;-8.99;79.27
61618;BME280;47518;51.776;9.370;2022-12-18T02:18:22;101727.44;;;-9.12;77.72
61618;BME280;47518;51.776;9.370;2022-12-18T02:20:56;101726.00;;;-9.37;77.15
61618;BME280;47518;51.776;9.370;2022-12-18T02:26:36;101718.03;;;-9.34;77.43
61618;BME280;47518;51.776;9.370;2022-12-18T02:31:56;101728.47;;;-9.26;80.19
61618;BME280;47518;51.776;9.370;2022-12-18T02:34:25;101721.31;;;-9.12;79.85
61618;BME280;47518;51.776;9.370;2022-12-18T02:36:53;101733.88;;;-9.35;78.99
61618;BME280;47518;51.776;9.370;2022-12-18T02:39:21;101720.84;;;-9.48;78.45
61618;BME280;47518;51.776;9.370;2022-12-18T02:41:49;101728.59;;;-9.35;79.41
61618;BME280;47518;51.776;9.370;2022-12-18T02:44:14;101733.63;;;-9.14;80.56
61618;BME280;47518;51.776;9.370;2022-12-18T02:46:43;101727.44;;;-9.10;80.35
61618;BME280;47518;51.776;9.370;2022-12-18T02:49:35;101720.19;;;-8.91;80.54
61618;BME280;47518;51.776;9.370;2022-12-18T02:57:39;101710.34;;;-8.78;80.30
61618;BME280;47518;51.776;9.370;2022-12-18T03:00:11;101712.13;;;-8.82;79.68
61618;BME280;47518;51.776;9.370;2022-12-18T03:02:43;101705.81;;;-8.70;80.39
61618;BME280;47518;51.776;9.370;2022-12-18T03:05:33;101712.13;;;-8.82;80.79
61618;BME280;47518;51.776;9.370;2022-12-18T03:08:06;101709.22;;;-8.62;80.22
61618;BME280;47518;51.776;9.370;2022-12-18T03:10:37;101707.41;;;-8.59;80.22
61618;BME280;47518;51.776;9.370;2022-12-18T03:13:07;101717.75;;;-8.43;79.15
61618;BME280;47518;51.776;9.370;2022-12-18T03:15:37;101707.41;;;-8.56;79.40
61618;BME280;47518;51.776;9.370;2022-12-18T03:18:10;101701.25;;;-8.56;78.71
61618;BME280;47518;51.776;9.370;2022-12-18T03:20:39;101710.25;;;-8.72;79.81
61618;BME280;47518;51.776;9.370;2022-12-18T03:23:11;101704.00;;;-8.65;79.12
61618;BME280;47518;51.776;9.370;2022-12-18T03:25:41;101688.13;;;-8.61;77.27
61618;BME280;47518;51.776;9.370;2022-12-18T03:28:12;101706.66;;;-8.65;78.29
61618;BME280;47518;51.776;9.370;2022-12-18T03:30:40;101698.94;;;-8.79;78.49
61618;BME280;47518;51.776;9.370;2022-12-18T03:33:19;101701.44;;;-8.71;79.08
61618;BME280;47518;51.776;9.370;2022-12-18T03:35:46;101717.16;;;-8.64;78.26
61618;BME280;47518;51.776;9.370;2022-12-18T03:38:12;101711.13;;;-8.72;77.47
61618;BME280;47518;51.776;9.370;2022-12-18T03:43:40;101710.25;;;-8.72;75.03
61618;BME280;47518;51.776;9.370;2022-12-18T03:46:15;101705.91;;;-8.76;77.47
61618;BME280;47518;51.776;9.370;2022-12-18T03:48:46;101706.97;;;-8.90;77.38
61618;BME280;47518;51.776;9.370;2022-12-18T03:51:21;101715.06;;;-9.05;79.22
61618;BME280;47518;51.776;9.370;2022-12-18T03:53:55;101704.25;;;-8.84;78.42
61618;BME280;47518;51.776;9.370;2022-12-18T03:56:26;101701.22;;;-9.21;77.09
61618;BME280;47518;51.776;9.370;2022-12-18T03:58:54;101691.38;;;-9.06;77.64
61618;BME280;47518;51.776;9.370;2022-12-18T04:01:28;101701.81;;;-8.99;77.87
61618;BME280;47518;51.776;9.370;2022-12-18T04:03:55;101696.63;;;-9.05;77.36
61618;BME280;47518;51.776;9.370;2022-12-18T04:06:22;101711.97;;;-9.42;76.76
61618;BME280;47518;51.776;9.370;2022-12-18T04:08:48;101707.84;;;-9.66;76.97
61618;BME280;47518;51.776;9.370;2022-12-18T04:11:14;101716.72;;;-9.78;77.16
61618;BME280;47518;51.776;9.370;2022-12-18T04:13:42;101723.72;;;-9.72;76.02
61618;BME280;47518;51.776;9.370;2022-12-18T04:16:08;101717.69;;;-9.86;77.25
61618;BME280;47518;51.776;9.370;2022-12-18T04:18:34;101719.41;;;-9.85;76.78
61618;BME280;47518;51.776;9.370;2022-12-18T04:21:00;101721.47;;;-10.18;76.24
61618;BME280;47518;51.776;9.370;2022-12-18T04:23:25;101733.63;;;-10.03;75.99
61618;BME280;47518;51.776;9.370;2022-12-18T04:25:51;101728.50;;;-10.18;75.99
61618;BME280;47518;51.776;9.370;2022-12-18T04:28:16;101715.13;;;-9.92;75.49
61618;BME280;47518;51.776;9.370;2022-12-18T04:30:41;101724.75;;;-9.91;75.79
61618;BME280;47518;51.776;9.370;2022-12-18T04:33:10;101718.50;;;-9.80;76.80
61618;BME280;47518;51.776;9.370;2022-12-18T04:35:35;101724.56;;;-9.73;78.11
61618;BME280;47518;51.776;9.370;2022-12-18T04:38:01;101717.69;;;-9.86;76.70
61618;BME280;47518;51.776;9.370;2022-12-18T04:40:26;101721.31;;;-10.01;77.02
61618;BME280;47518;51.776;9.370;2022-12-18T04:42:51;101723.00;;;-9.92;75.84
61618;BME280;47518;51.776;9.370;2022-12-18T04:45:17;101724.91;;;-10.13;76.87
61618;BME280;47518;51.776;9.370;2022-12-18T04:47:42;101728.28;;;-9.97;76.49
61618;BME280;47518;51.776;9.370;2022-12-18T04:50:07;101721.41;;;-10.13;76.85
61618;BME280;47518;51.776;9.370;2022-12-18T04:52:33;101719.66;;;-10.13;76.22
61618;BME280;47518;51.776;9.370;2022-12-18T04:54:58;101728.41;;;-10.12;76.65
61618;BME280;47518;51.776;9.370;2022-12-18T04:57:23;101731.22;;;-10.32;76.25
61618;BME280;47518;51.776;9.370;2022-12-18T04:59:49;101732.84;;;-10.19;76.34
61618;BME280;47518;51.776;9.370;2022-12-18T05:02:14;101744.16;;;-10.05;76.33
61618;BME280;47518;51.776;9.370;2022-12-18T05:04:40;101749.38;;;-10.00;76.86
61618;BME280;47518;51.776;9.370;2022-12-18T05:07:05;101737.91;;;-9.93;76.72
61618;BME280;47518;51.776;9.370;2022-12-18T05:09:30;101745.81;;;-9.93;77.28
61618;BME280;47518;51.776;9.370;2022-12-18T05:24:31;101742.13;;;-11.05;82.36
61618;BME280;47518;51.776;9.370;2022-12-18T05:26:57;101742.88;;;-10.73;80.76
61618;BME280;47518;51.776;9.370;2022-12-18T05:29:22;101732.25;;;-10.53;79.63
61618;BME280;47518;51.776;9.370;2022-12-18T05:31:47;101727.69;;;-10.25;80.03
61618;BME280;47518;51.776;9.370;2022-12-18T05:34:13;101728.38;;;-10.08;79.55
61618;BME280;47518;51.776;9.370;2022-12-18T05:36:38;101728.34;;;-10.02;79.44
61618;BME280;47518;51.776;9.370;2022-12-18T05:39:03;101730.94;;;-10.00;79.48
61618;BME280;47518;51.776;9.370;2022-12-18T05:41:29;101735.63;;;-10.29;78.05
61618;BME280;47518;51.776;9.370;2022-12-18T05:43:54;101730.38;;;-10.36;77.97
61618;BME280;47518;51.776;9.370;2022-12-18T05:46:19;101727.53;;;-10.11;77.68
61618;BME280;47518;51.776;9.370;2022-12-18T05:48:45;101727.44;;;-10.01;77.91
61618;BME280;47518;51.776;9.370;2022-12-18T05:51:14;101731.78;;;-9.93;78.94
61618;BME280;47518;51.776;9.370;2022-12-18T05:53:40;101731.88;;;-10.04;78.29
61618;BME280;47518;51.776;9.370;2022-12-18T05:56:08;101737.25;;;-10.18;76.61
61618;BME280;47518;51.776;9.370;2022-12-18T05:58:34;101740.75;;;-10.20;76.58
61618;BME280;47518;51.776;9.370;2022-12-18T06:01:11;101739.00;;;-10.17;77.27
61618;BME280;47518;51.776;9.370;2022-12-18T06:03:36;101751.09;;;-9.94;77.77
61618;BME280;47518;51.776;9.370;2022-12-18T06:06:02;101747.66;;;-10.07;77.28
61618;BME280;47518;51.776;9.370;2022-12-18T06:08:28;101745.09;;;-10.15;76.61
61618;BME280;47518;51.776;9.370;2022-12-18T06:10:53;101738.13;;;-10.20;76.00
61618;BME280;47518;51.776;9.370;2022-12-18T06:13:20;101740.06;;;-10.41;75.82
61618;BME280;47518;51.776;9.370;2022-12-18T06:15:45;101740.00;;;-10.30;76.45
61618;BME280;47518;51.776;9.370;2022-12-18T06:18:11;101739.13;;;-10.35;76.16
61618;BME280;47518;51.776;9.370;2022-12-18T06:20:36;101732.97;;;-10.31;76.64
61618;BME280;47518;51.776;9.370;2022-12-18T06:23:04;101752.94;;;-10.09;77.19
61618;BME280;47518;51.776;9.370;2022-12-18T06:25:29;101748.72;;;-10.25;75.97
61618;BME280;47518;51.776;9.370;2022-12-18T06:27:55;101739.13;;;-10.34;76.35
61618;BME280;47518;51.776;9.370;2022-12-18T06:30:20;101751.53;;;-10.52;76.87
61618;BME280;47518;51.776;9.370;2022-12-18T06:32:48;101743.59;;;-10.42;76.48
61618;BME280;47518;51.776;9.370;2022-12-18T06:35:13;101735.50;;;-10.20;77.25
61618;BME280;47518;51.776;9.370;2022-12-18T06:37:38;101742.63;;;-10.33;76.47
61618;BME280;47518;51.776;9.370;2022-12-18T06:40:05;101741.69;;;-10.23;76.39
61618;BME280;47518;51.776;9.370;2022-12-18T06:42:30;101746.00;;;-10.16;76.66
61618;BME280;47518;51.776;9.370;2022-12-18T06:44:55;101741.63;;;-10.20;75.49
61618;BME280;47518;51.776;9.370;2022-12-18T06:47:21;101747.03;;;-10.35;75.70
61618;BME280;47518;51.776;9.370;2022-12-18T06:49:46;101746.19;;;-10.39;75.27
61618;BME280;47518;51.776;9.370;2022-12-18T06:52:11;101757.59;;;-10.44;75.71
61618;BME280;47518;51.776;9.370;2022-12-18T06:54:37;101747.06;;;-10.44;76.16
61618;BME280;47518;51.776;9.370;2022-12-18T06:57:02;101762.72;;;-10.24;76.13
61618;BME280;47518;51.776;9.370;2022-12-18T06:59:27;101764.53;;;-10.28;75.56
61618;BME280;47518;51.776;9.370;2022-12-18T07:01:53;101768.13;;;-10.47;76.16
61618;BME280;47518;51.776;9.370;2022-12-18T07:04:18;101778.66;;;-10.50;75.67
61618;BME280;47518;51.776;9.370;2022-12-18T07:06:43;101782.19;;;-10.54;76.41
61618;BME280;47518;51.776;9.370;2022-12-18T07:09:09;101767.34;;;-10.68;76.01
61618;BME280;47518;51.776;9.370;2022-12-18T07:11:34;101775.16;;;-10.54;76.68
61618;BME280;47518;51.776;9.370;2022-12-18T07:14:00;101783.06;;;-10.55;74.42
61618;BME280;47518;51.776;9.370;2022-12-18T07:16:25;101798.81;;;-10.54;75.32
61618;BME280;47518;51.776;9.370;2022-12-18T07:18:54;101796.25;;;-10.68;76.28
61618;BME280;47518;51.776;9.370;2022-12-18T07:21:21;101798.84;;;-10.58;75.97
61618;BME280;47518;51.776;9.370;2022-12-18T07:23:46;101797.91;;;-10.47;75.64
61618;BME280;47518;51.776;9.370;2022-12-18T07:26:13;101795.22;;;-10.33;76.31
61618;BME280;47518;51.776;9.370;2022-12-18T07:28:40;101796.88;;;-10.18;76.84
61618;BME280;47518;51.776;9.370;2022-12-18T07:31:08;101798.53;;;-10.11;77.04
61618;BME280;47518;51.776;9.370;2022-12-18T07:33:34;101802.84;;;-9.98;77.40
61618;BME280;47518;51.776;9.370;2022-12-18T07:36:01;101780.91;;;-9.97;77.79
61618;BME280;47518;51.776;9.370;2022-12-18T07:38:26;101787.72;;;-9.73;79.02
61618;BME280;47518;51.776;9.370;2022-12-18T07:40:52;101785.06;;;-9.67;78.98
61618;BME280;47518;51.776;9.370;2022-12-18T07:43:17;101777.16;;;-9.65;79.31
61618;BME280;47518;51.776;9.370;2022-12-18T07:45:43;101784.19;;;-9.67;78.70
61618;BME280;47518;51.776;9.370;2022-12-18T07:48:09;101779.72;;;-9.61;79.45
61618;BME280;47518;51.776;9.370;2022-12-18T07:50:34;101777.78;;;-9.41;79.53
61618;BME280;47518;51.776;9.370;2022-12-18T07:52:59;101773.25;;;-9.28;78.53
61618;BME280;47518;51.776;9.370;2022-12-18T07:55:29;101766.06;;;-9.10;78.02
61618;BME280;47518;51.776;9.370;2022-12-18T07:57:54;101762.69;;;-9.22;78.12
61618;BME280;47518;51.776;9.370;2022-12-18T08:00:19;101765.91;;;-8.97;77.80
61618;BME280;47518;51.776;9.370;2022-12-18T08:02:45;101771.22;;;-9.03;74.89
61618;BME280;47518;51.776;9.370;2022-12-18T08:05:10;101771.50;;;-9.26;75.25
61618;BME280;47518;51.776;9.370;2022-12-18T08:07:35;101774.09;;;-9.21;75.90
61618;BME280;47518;51.776;9.370;2022-12-18T08:10:01;101782.84;;;-9.21;74.45
61618;BME280;47518;51.776;9.370;2022-12-18T08:12:26;101781.13;;;-9.23;73.50
61618;BME280;47518;51.776;9.370;2022-12-18T08:14:51;101783.78;;;-9.23;73.85
61618;BME280;47518;51.776;9.370;2022-12-18T08:17:16;101770.75;;;-9.40;73.86
61618;BME280;47518;51.776;9.370;2022-12-18T08:19:42;101772.53;;;-9.42;74.06
61618;BME280;47518;51.776;9.370;2022-12-18T08:22:07;101780.16;;;-9.15;73.47
61618;BME280;47518;51.776;9.370;2022-12-18T08:24:32;101784.41;;;-9.01;75.07
61618;BME280;47518;51.776;9.370;2022-12-18T08:26:58;101782.66;;;-9.04;75.54
61618;BME280;47518;51.776;9.370;2022-12-18T08:29:23;101782.56;;;-8.95;76.45
61618;BME280;47518;51.776;9.370;2022-12-18T08:31:48;101770.91;;;-8.74;77.43
61618;BME280;47518;51.776;9.370;2022-12-18T08:34:14;101763.06;;;-8.80;76.91
61618;BME280;47518;51.776;9.370;2022-12-18T08:36:39;101774.41;;;-8.73;76.85
61618;BME280;47518;51.776;9.370;2022-12-18T08:39:05;101759.25;;;-8.56;77.13
61618;BME280;47518;51.776;9.370;2022-12-18T08:41:30;101742.63;;;-8.63;77.32
61618;BME280;47518;51.776;9.370;2022-12-18T08:43:55;101738.41;;;-8.76;77.85
61618;BME280;47518;51.776;9.370;2022-12-18T08:46:42;101729.00;;;-8.34;77.22
61618;BME280;47518;51.776;9.370;2022-12-18T08:49:09;101735.84;;;-8.20;76.66
61618;BME280;47518;51.776;9.370;2022-12-18T08:51:35;101727.34;;;-8.38;76.57
61618;BME280;47518;51.776;9.370;2022-12-18T08:54:01;101739.91;;;-7.98;76.24
61618;BME280;47518;51.776;9.370;2022-12-18T08:56:26;101728.81;;;-8.20;77.00
61618;BME280;47518;51.776;9.370;2022-12-18T08:58:53;101730.56;;;-8.20;77.37
61618;BME280;47518;51.776;9.370;2022-12-18T09:01:19;101734.56;;;-7.95;75.82
61618;BME280;47518;51.776;9.370;2022-12-18T09:03:48;101722.03;;;-7.82;76.51
61618;BME280;47518;51.776;9.370;2022-12-18T09:06:15;101721.34;;;-7.44;75.92
61618;BME280;47518;51.776;9.370;2022-12-18T09:08:41;101733.66;;;-7.43;76.48
61618;BME280;47518;51.776;9.370;2022-12-18T09:11:27;101736.94;;;-7.30;75.00
61618;BME280;47518;51.776;9.370;2022-12-18T09:13:54;101732.41;;;-7.24;74.66
61618;BME280;47518;51.776;9.370;2022-12-18T09:16:20;101727.47;;;-6.97;73.95
61618;BME280;47518;51.776;9.370;2022-12-18T09:18:46;101732.34;;;-7.21;74.87
61618;BME280;47518;51.776;9.370;2022-12-18T09:21:15;101735.16;;;-7.28;75.40
61618;BME280;47518;51.776;9.370;2022-12-18T09:23:41;101754.78;;;-7.43;75.28
61618;BME280;47518;51.776;9.370;2022-12-18T09:26:07;101746.81;;;-7.42;75.63
61618;BME280;47518;51.776;9.370;2022-12-18T09:28:33;101750.53;;;-7.50;76.49
61618;BME280;47518;51.776;9.370;2022-12-18T09:30:58;101747.53;;;-7.32;75.53
61618;BME280;47518;51.776;9.370;2022-12-18T09:33:24;101739.28;;;-7.14;75.52
61618;BME280;47518;51.776;9.370;2022-12-18T09:35:49;101725.91;;;-7.06;75.46
61618;BME280;47518;51.776;9.370;2022-12-18T09:38:17;101724.53;;;-6.42;74.62
61618;BME280;47518;51.776;9.370;2022-12-18T09:40:49;101717.59;;;-5.75;71.79
61618;BME280;47518;51.776;9.370;2022-12-18T09:43:19;101720.34;;;-4.24;67.97
61618;BME280;47518;51.776;9.370;2022-12-18T09:45:49;101717.66;;;-3.68;65.17
61618;BME280;47518;51.776;9.370;2022-12-18T09:48:28;101702.41;;;-2.43;60.68
61618;BME280;47518;51.776;9.370;2022-12-18T09:51:00;101698.56;;;-2.81;60.58
61618;BME280;47518;51.776;9.370;2022-12-18T09:53:31;101703.72;;;-3.25;61.85
61618;BME280;47518;51.776;9.370;2022-12-18T09:55:58;101717.50;;;-2.89;61.66
61618;BME280;47518;51.776;9.370;2022-12-18T09:58:30;101719.53;;;-2.27;60.01
61618;BME280;47518;51.776;9.370;2022-12-18T10:00:57;101718.59;;;-1.60;58.32
61618;BME280;47518;51.776;9.370;2022-12-18T10:03:23;101707.69;;;-0.95;55.54
61618;BME280;47518;51.776;9.370;2022-12-18T10:08:45;101714.56;;;0.93;50.02
61618;BME280;47518;51.776;9.370;2022-12-18T10:11:39;101714.38;;;1.62;47.77
61618;BME280;47518;51.776;9.370;2022-12-18T10:14:18;101717.19;;;1.59;48.45
61618;BME280;47518;51.776;9.370;2022-12-18T10:17:14;101714.69;;;2.03;47.89
61618;BME280;47518;51.776;9.370;2022-12-18T10:19:49;101714.22;;;1.32;49.33
61618;BME280;47518;51.776;9.370;2022-12-18T10:35:29;101701.81;;;1.79;47.32
61618;BME280;47518;51.776;9.370;2022-12-18T10:41:08;101699.44;;;3.94;44.86
61618;BME280;47518;51.776;9.370;2022-12-18T10:46:54;101689.75;;;4.71;41.49
61618;BME280;47518;51.776;9.370;2022-12-18T10:49:31;101675.41;;;4.18;43.08
61618;BME280;47518;51.776;9.370;2022-12-18T10:52:07;101670.88;;;3.91;43.67
61618;BME280;47518;51.776;9.370;2022-12-18T10:54:37;101668.88;;;3.80;44.41
61618;BME280;47518;51.776;9.370;2022-12-18T11:00:26;101651.13;;;2.36;47.77
61618;BME280;47518;51.776;9.370;2022-12-18T11:02:53;101640.66;;;1.69;50.26
61618;BME280;47518;51.776;9.370;2022-12-18T11:18:32;101629.69;;;1.74;55.25
61618;BME280;47518;51.776;9.370;2022-12-18T11:21:06;101626.06;;;1.75;54.02
61618;BME280;47518;51.776;9.370;2022-12-18T11:23:33;101609.88;;;1.77;54.84
61618;BME280;47518;51.776;9.370;2022-12-18T11:26:01;101609.97;;;1.12;55.54
61618;BME280;47518;51.776;9.370;2022-12-18T11:28:49;101588.94;;;1.83;54.80
61618;BME280;47518;51.776;9.370;2022-12-18T11:34:00;101597.69;;;1.87;52.82
61618;BME280;47518;51.776;9.370;2022-12-18T11:36:31;101593.44;;;2.13;54.38
61618;BME280;47518;51.776;9.370;2022-12-18T11:38:58;101601.22;;;1.87;55.00
61618;BME280;47518;51.776;9.370;2022-12-18T11:41:38;101590.25;;;1.60;54.85
61618;BME280;47518;51.776;9.370;2022-12-18T11:44:31;101577.72;;;0.82;58.23
61618;BME280;47518;51.776;9.370;2022-12-18T11:47:09;101571.91;;;0.74;59.12
61618;BME280;47518;51.776;9.370;2022-12-18T11:49:36;101565.59;;;0.42;59.75
61618;BME280;47518;51.776;9.370;2022-12-18T11:52:09;101549.75;;;0.54;59.86
61618;BME280;47518;51.776;9.370;2022-12-18T11:54:35;101543.31;;;0.58;59.32
61618;BME280;47518;51.776;9.370;2022-12-18T12:10:40;101536.84;;;-0.22;64.55
61618;BME280;47518;51.776;9.370;2022-12-18T12:13:20;101536.22;;;-0.10;64.87
61618;BME280;47518;51.776;9.370;2022-12-18T12:15:59;101530.94;;;-0.29;64.90
61618;BME280;47518;51.776;9.370;2022-12-18T12:34:32;101498.81;;;-0.81;68.15
61618;BME280;47518;51.776;9.370;2022-12-18T12:37:22;101495.66;;;-1.08;67.64
61618;BME280;47518;51.776;9.370;2022-12-18T12:39:52;101492.41;;;-0.96;68.04
61618;BME280;47518;51.776;9.370;2022-12-18T12:42:31;101491.69;;;-0.99;67.69
61618;BME280;47518;51.776;9.370;2022-12-18T12:45:26;101494.25;;;-1.15;67.81
61618;BME280;47518;51.776;9.370;2022-12-18T12:47:54;101500.81;;;-1.22;68.92
61618;BME280;47518;51.776;9.370;2022-12-18T12:50:22;101499.06;;;-1.23;68.23
61618;BME280;47518;51.776;9.370;2022-12-18T12:52:52;101490.03;;;-1.39;69.11
61618;BME280;47518;51.776;9.370;2022-12-18T12:55:24;101498.19;;;-1.61;68.57
61618;BME280;47518;51.776;9.370;2022-12-18T12:58:13;101503.81;;;-1.88;68.19
61618;BME280;47518;51.776;9.370;2022-12-18T13:00:46;101491.16;;;-1.83;67.96
61618;BME280;47518;51.776;9.370;2022-12-18T13:03:29;101493.91;;;-1.65;68.82
61618;BME280;47518;51.776;9.370;2022-12-18T13:06:04;101502.50;;;-1.98;68.55
61618;BME280;47518;51.776;9.370;2022-12-18T13:08:51;101496.84;;;-1.90;69.07
61618;BME280;47518;51.776;9.370;2022-12-18T13:11:39;101487.97;;;-1.91;68.72
61618;BME280;47518;51.776;9.370;2022-12-18T13:14:31;101494.88;;;-1.87;68.60
61618;BME280;47518;51.776;9.370;2022-12-18T13:59:38;101455.69;;;-2.03;68.61
61618;BME280;47518;51.776;9.370;2022-12-18T14:02:13;101458.97;;;-2.17;70.36
61618;BME280;47518;51.776;9.370;2022-12-18T14:04:39;101444.94;;;-2.02;68.08
61618;BME280;47518;51.776;9.370;2022-12-18T14:07:07;101438.22;;;-2.11;68.23
61618;BME280;47518;51.776;9.370;2022-12-18T14:09:39;101445.47;;;-1.94;68.74
61618;BME280;47518;51.776;9.370;2022-12-18T14:12:14;101426.38;;;-2.03;68.11
61618;BME280;47518;51.776;9.370;2022-12-18T14:15:01;101450.09;;;-2.18;69.02
61618;BME280;47518;51.776;9.370;2022-12-18T14:17:27;101430.84;;;-2.04;68.54
61618;BME280;47518;51.776;9.370;2022-12-18T14:19:52;101431.56;;;-2.00;67.80
61618;BME280;47518;51.776;9.370;2022-12-18T14:22:24;101424.09;;;-1.92;67.54
61618;BME280;47518;51.776;9.370;2022-12-18T14:38:38;101440.88;;;-2.11;68.79
61618;BME280;47518;51.776;9.370;2022-12-18T14:41:05;101439.53;;;-2.00;67.40
61618;BME280;47518;51.776;9.370;2022-12-18T14:43:38;101436.91;;;-2.21;68.40
61618;BME280;47518;51.776;9.370;2022-12-18T14:46:05;101442.28;;;-2.02;67.63
61618;BME280;47518;51.776;9.370;2022-12-18T15:01:33;101442.94;;;-1.97;66.70
61618;BME280;47518;51.776;9.370;2022-12-18T15:04:00;101450.91;;;-1.97;67.09
61618;BME280;47518;51.776;9.370;2022-12-18T15:19:37;101444.31;;;-2.07;67.83
61618;BME280;47518;51.776;9.370;2022-12-18T15:22:04;101429.59;;;-1.97;67.19
61618;BME280;47518;51.776;9.370;2022-12-18T15:24:31;101428.16;;;-2.04;66.78
61618;BME280;47518;51.776;9.370;2022-12-18T15:26:58;101433.28;;;-1.99;68.39
61618;BME280;47518;51.776;9.370;2022-12-18T15:29:23;101418.22;;;-2.19;69.00
61618;BME280;47518;51.776;9.370;2022-12-18T15:31:59;101412.25;;;-2.06;67.76
61618;BME280;47518;51.776;9.370;2022-12-18T15:34:24;101398.00;;;-2.04;67.22
61618;BME280;47518;51.776;9.370;2022-12-18T15:36:54;101428.53;;;-1.93;67.96
61618;BME280;47518;51.776;9.370;2022-12-18T15:39:20;101416.97;;;-2.12;67.42
61618;BME280;47518;51.776;9.370;2022-12-18T15:41:45;101410.78;;;-2.13;67.98
61618;BME280;47518;51.776;9.370;2022-12-18T15:44:31;101424.19;;;-2.14;68.34
61618;BME280;47518;51.776;9.370;2022-12-18T15:46:57;101424.03;;;-2.11;68.14
61618;BME280;47518;51.776;9.370;2022-12-18T15:49:23;101395.34;;;-2.25;68.31
61618;BME280;47518;51.776;9.370;2022-12-18T15:51:54;101399.94;;;-2.08;68.25
61618;BME280;47518;51.776;9.370;2022-12-18T15:54:20;101412.91;;;-2.00;67.41
61618;BME280;47518;51.776;9.370;2022-12-18T15:57:09;101401.91;;;-1.93;67.49
61618;BME280;47518;51.776;9.370;2022-12-18T15:59:52;101400.16;;;-1.94;67.80
61618;BME280;47518;51.776;9.370;2022-12-18T16:02:19;101386.97;;;-2.16;67.49
61618;BME280;47518;51.776;9.370;2022-12-18T16:04:45;101382.41;;;-2.14;67.92
61618;BME280;47518;51.776;9.370;2022-12-18T16:07:11;101389.22;;;-2.07;67.30